Time;durP1;ratioP1;P1;durP2;ratioP2;P2;SDS_P1;SDS_P2;PMS_P1;PMS_P2;Temp;Humidity;BMP_temperature;BMP_pressure;BME280_temperature;BME280_humidity;BME280_pressure;Samples;Min_cycle;Max_cycle;Signal;HPM_P1;HPM_P2
2022/08/20 00:00:25;;;;;;;22.85;19.50;;;;;;;;;;6179575;23;20033;-59
2022/08/20 00:03:01;;;;;;;18.75;16.60;;;;;;;;;;6178926;23;20021;-65
2022/08/20 00:05:30;;;;;;;18.65;15.95;;;;;;;;;;6179331;23;20510;-67
2022/08/20 00:07:58;;;;;;;20.63;16.77;;;;;;;;;;6178516;23;20100;-67
2022/08/20 00:10:33;;;;;;;22.38;18.40;;;;;;;;;;6179637;23;20071;-67
2022/08/20 00:13:00;;;;;;;22.65;17.00;;;;;;;;;;6179373;23;20028;-67
2022/08/20 00:15:37;;;;;;;20.48;16.45;;;;;;;;;;6180287;23;20064;-67
2022/08/20 00:18:12;;;;;;;22.05;17.05;;;;;;;;;;6179052;23;20047;-67
2022/08/20 00:20:41;;;;;;;24.38;18.25;;;;;;;;;;6179112;23;20088;-62
2022/08/20 00:23:15;;;;;;;20.55;17.10;;;;;;;;;;6178948;23;20036;-54
2022/08/20 00:25:50;;;;;;;20.52;16.77;;;;;;;;;;6180321;23;20025;-56
2022/08/20 00:28:18;;;;;;;33.58;20.98;;;;;;;;;;6178623;23;20028;-57
2022/08/20 00:30:45;;;;;;;;;;;;;;;;;;6179676;23;20088;-54
2022/08/20 00:33:28;;;;;;;188.48;26.13;;;;;;;;;;6178581;23;19924;-56
2022/08/20 00:35:55;;;;;;;323.75;28.45;;;;;;;;;;6179553;23;20021;-59
2022/08/20 00:38:30;;;;;;;27.20;20.08;;;;;;;;;;6178955;23;20052;-56
2022/08/20 00:40:58;;;;;;;212.55;25.30;;;;;;;;;;6153784;23;20055;-63
2022/08/20 00:43:44;;;;;;;124.45;22.90;;;;;;;;;;6179436;23;20021;-63
2022/08/20 00:46:20;;;;;;;24.75;19.13;;;;;;;;;;6178866;23;20025;-63
2022/08/20 00:48:57;;;;;;;24.33;17.85;;;;;;;;;;6179520;23;20029;-63
2022/08/20 00:51:41;;;;;;;22.20;18.13;;;;;;;;;;6179768;23;20071;-63
2022/08/20 00:54:09;;;;;;;26.55;20.02;;;;;;;;;;6177177;23;20497;-63
2022/08/20 00:56:45;;;;;;;30.48;19.10;;;;;;;;;;6181928;23;20024;-63
2022/08/20 00:59:20;;;;;;;69.93;22.15;;;;;;;;;;6181286;23;20025;-63
2022/08/20 01:01:54;;;;;;;77.05;22.58;;;;;;;;;;6181623;23;20021;-55
2022/08/20 01:04:26;;;;;;;29.00;19.48;;;;;;;;;;6180353;23;20020;-55
2022/08/20 01:06:54;;;;;;;33.10;22.20;;;;;;;;;;6180745;23;20021;-54
2022/08/20 01:09:28;;;;;;;52.38;23.08;;;;;;;;;;6181487;23;20064;-54
2022/08/20 01:12:16;;;;;;;80.70;24.25;;;;;;;;;;6180670;23;20032;-53
2022/08/20 01:14:50;;;;;;;38.13;22.17;;;;;;;;;;6181176;23;20489;-56
2022/08/20 01:17:22;;;;;;;47.95;23.38;;;;;;;;;;6180239;23;20029;-52
2022/08/20 01:19:56;;;;;;;56.42;22.40;;;;;;;;;;6154857;23;20414;-67
2022/08/20 01:25:29;;;;;;;67.10;23.08;;;;;;;;;;6181684;23;20025;-62
2022/08/20 01:28:03;;;;;;;69.35;26.17;;;;;;;;;;6180306;23;20048;-63
2022/08/20 01:30:44;;;;;;;148.85;28.80;;;;;;;;;;6180340;23;20467;-63
2022/08/20 01:33:18;;;;;;;291.13;34.85;;;;;;;;;;6150474;23;20392;-62
2022/08/20 01:35:45;;;;;;;;;;;;;;;;;;6151812;23;20021;-63
2022/08/20 01:38:13;;;;;;;40.22;22.42;;;;;;;;;;6151174;23;20342;-54
2022/08/20 01:41:05;;;;;;;230.88;32.90;;;;;;;;;;6151622;23;20026;-63
2022/08/20 01:43:32;;;;;;;71.95;26.40;;;;;;;;;;6150622;23;20025;-64
2022/08/20 01:46:07;;;;;;;143.88;29.85;;;;;;;;;;6151182;23;20022;-64
2022/08/20 01:48:36;;;;;;;225.52;33.85;;;;;;;;;;6151206;23;20107;-63
2022/08/20 01:51:06;;;;;;;379.13;39.65;;;;;;;;;;6150289;23;20025;-64
2022/08/20 01:53:42;;;;;;;618.50;50.80;;;;;;;;;;6150584;23;20045;-63
2022/08/20 01:56:13;;;;;;;884.80;61.88;;;;;;;;;;6150864;23;20505;-64
2022/08/20 01:58:42;;;;;;;616.85;51.50;;;;;;;;;;6149720;23;20025;-58
2022/08/20 02:01:25;;;;;;;131.85;26.77;;;;;;;;;;6151700;23;20056;-57
2022/08/20 02:03:53;;;;;;;548.58;49.40;;;;;;;;;;6151236;23;20018;-53
2022/08/20 02:06:31;;;;;;;361.75;39.38;;;;;;;;;;6150459;23;20029;-56
2022/08/20 02:08:59;;;;;;;242.35;37.67;;;;;;;;;;6150564;23;20088;-53
2022/08/20 02:11:27;;;;;;;362.02;41.55;;;;;;;;;;6150800;23;20026;-56
2022/08/20 02:14:02;;;;;;;738.67;58.45;;;;;;;;;;6125691;23;20462;-63
2022/08/20 02:16:35;;;;;;;614.65;50.35;;;;;;;;;;6151277;23;20116;-58
2022/08/20 02:19:20;;;;;;;377.95;40.00;;;;;;;;;;6151150;23;20025;-55
2022/08/20 02:21:50;;;;;;;289.35;36.20;;;;;;;;;;6150701;23;20090;-57
2022/08/20 02:24:24;;;;;;;235.85;32.78;;;;;;;;;;6126759;23;20026;-57
2022/08/20 02:26:51;;;;;;;680.50;54.58;;;;;;;;;;6151237;23;20025;-58
2022/08/20 02:29:19;;;;;;;;;;;;;;;;;;6151051;23;20501;-56
2022/08/20 02:32:06;;;;;;;253.75;35.95;;;;;;;;;;6166181;23;19917;-54
2022/08/20 02:35:02;;;;;;;641.83;45.30;;;;;;;;;;6179834;23;20021;-68
2022/08/20 02:37:38;;;;;;;189.68;33.25;;;;;;;;;;6180152;23;20056;-64
2022/08/20 02:40:06;;;;;;;212.93;32.67;;;;;;;;;;6179810;23;20021;-63
2022/08/20 02:42:34;;;;;;;113.47;29.65;;;;;;;;;;6180618;23;20025;-63
2022/08/20 02:45:13;;;;;;;51.88;25.70;;;;;;;;;;6179907;23;20032;-63
2022/08/20 02:47:45;;;;;;;55.85;26.80;;;;;;;;;;6180788;23;20025;-63
2022/08/20 02:50:20;;;;;;;57.63;26.02;;;;;;;;;;6180094;23;20048;-63
2022/08/20 02:52:47;;;;;;;59.40;26.92;;;;;;;;;;6179393;23;20021;-63
2022/08/20 02:55:18;;;;;;;48.28;25.35;;;;;;;;;;6180295;23;20091;-60
2022/08/20 02:57:58;;;;;;;46.47;23.95;;;;;;;;;;6179752;23;20490;-56
2022/08/20 03:00:26;;;;;;;55.35;26.75;;;;;;;;;;6180742;23;20021;-51
2022/08/20 03:03:05;;;;;;;58.88;27.08;;;;;;;;;;6179933;23;20022;-57
2022/08/20 03:05:32;;;;;;;45.25;24.98;;;;;;;;;;6180329;23;20525;-55
2022/08/20 03:07:59;;;;;;;;;;;;;;;;;;6179374;23;20095;-56
2022/08/20 03:10:34;;;;;;;46.75;24.48;;;;;;;;;;6180666;23;19916;-57
2022/08/20 03:13:01;;;;;;;60.92;27.52;;;;;;;;;;6180266;23;20080;-58
2022/08/20 03:15:29;;;;;;;44.90;24.73;;;;;;;;;;6180209;23;20021;-63
2022/08/20 03:18:03;;;;;;;61.78;26.83;;;;;;;;;;6179398;23;20057;-63
2022/08/20 03:20:30;;;;;;;36.67;23.17;;;;;;;;;;6180172;23;20032;-63
2022/08/20 03:22:58;;;;;;;47.63;26.02;;;;;;;;;;6179122;23;20538;-63
2022/08/20 03:25:32;;;;;;;49.67;25.50;;;;;;;;;;6180569;23;20054;-63
2022/08/20 03:27:59;;;;;;;33.20;22.25;;;;;;;;;;6180110;23;20025;-63
2022/08/20 03:30:27;;;;;;;40.63;24.60;;;;;;;;;;6179884;23;20021;-62
2022/08/20 03:33:08;;;;;;;33.03;21.52;;;;;;;;;;6178348;23;20470;-63
2022/08/20 03:35:36;;;;;;;36.00;21.90;;;;;;;;;;6180686;23;20083;-52
2022/08/20 03:38:11;;;;;;;29.15;19.83;;;;;;;;;;6155512;23;20033;-54
2022/08/20 03:40:39;;;;;;;32.83;21.67;;;;;;;;;;6180203;23;20051;-55
2022/08/20 03:43:07;;;;;;;35.35;21.25;;;;;;;;;;6179643;23;20036;-54
2022/08/20 03:45:42;;;;;;;42.58;22.75;;;;;;;;;;6180137;23;20025;-51
2022/08/20 03:48:11;;;;;;;41.97;22.77;;;;;;;;;;6179021;23;20025;-51
2022/08/20 03:50:40;;;;;;;37.38;22.77;;;;;;;;;;6179749;23;20029;-67
2022/08/20 03:53:15;;;;;;;86.90;25.30;;;;;;;;;;6179421;23;20336;-50
2022/08/20 03:55:45;;;;;;;81.25;24.77;;;;;;;;;;6178350;23;20079;-50
2022/08/20 03:58:20;;;;;;;;;;;;;;;;;;6179438;23;20355;-55
2022/08/20 04:00:58;;;;;;;52.65;24.63;;;;;;;;;;6179620;23;19920;-52
2022/08/20 04:03:26;;;;;;;37.60;22.15;;;;;;;;;;6179876;23;20029;-55
2022/08/20 04:05:53;;;;;;;88.82;27.25;;;;;;;;;;6179682;23;20029;-57
2022/08/20 04:08:28;;;;;;;353.75;38.28;;;;;;;;;;6179780;23;20029;-67
2022/08/20 04:10:56;;;;;;;50.95;23.83;;;;;;;;;;6178535;23;20034;-56
2022/08/20 04:13:24;;;;;;;37.17;20.42;;;;;;;;;;6179729;23;20060;-63
2022/08/20 04:16:02;;;;;;;47.38;21.35;;;;;;;;;;6179001;23;20031;-63
2022/08/20 04:18:29;;;;;;;26.48;17.70;;;;;;;;;;6179719;23;20029;-63
2022/08/20 04:20:56;;;;;;;32.85;16.88;;;;;;;;;;6177768;23;20048;-63
2022/08/20 04:23:30;;;;;;;24.98;14.48;;;;;;;;;;6154759;23;20033;-63
2022/08/20 04:25:57;;;;;;;21.20;13.55;;;;;;;;;;6178998;23;20057;-62
2022/08/20 04:28:28;;;;;;;17.60;12.05;;;;;;;;;;6179595;23;20079;-60
2022/08/20 04:31:11;;;;;;;18.47;10.03;;;;;;;;;;6178699;23;20063;-55
2022/08/20 04:33:45;;;;;;;16.40;10.73;;;;;;;;;;6179218;23;20241;-63
2022/08/20 04:36:18;;;;;;;12.88;10.90;;;;;;;;;;6179647;23;20024;-62
2022/08/20 04:38:45;;;;;;;16.58;10.40;;;;;;;;;;6179758;23;20060;-63
2022/08/20 04:41:17;;;;;;;10.13;7.65;;;;;;;;;;6179106;23;20028;-64
2022/08/20 04:43:52;;;;;;;16.15;8.98;;;;;;;;;;6179353;23;20051;-62
2022/08/20 04:46:22;;;;;;;17.15;8.80;;;;;;;;;;6180236;23;20100;-60
2022/08/20 04:48:49;;;;;;;9.85;7.70;;;;;;;;;;6178648;23;20025;-63
2022/08/20 04:51:24;;;;;;;11.63;7.25;;;;;;;;;;6179817;23;20021;-62
2022/08/20 04:53:55;;;;;;;14.07;7.07;;;;;;;;;;6177593;23;20025;-63
2022/08/20 04:56:24;;;;;;;11.80;7.57;;;;;;;;;;6178665;23;20025;-64
2022/08/20 04:59:00;;;;;;;9.57;7.07;;;;;;;;;;6178880;23;20055;-62
2022/08/20 05:01:27;;;;;;;14.65;7.38;;;;;;;;;;6178601;23;20521;-63
2022/08/20 05:03:55;;;;;;;13.73;7.70;;;;;;;;;;6178027;23;20529;-62
2022/08/20 05:06:29;;;;;;;15.48;8.05;;;;;;;;;;6179317;23;20084;-59
2022/08/20 05:08:57;;;;;;;14.85;8.38;;;;;;;;;;6179020;23;20044;-63
2022/08/20 05:11:25;;;;;;;14.65;8.25;;;;;;;;;;6179761;23;20017;-68
2022/08/20 05:14:07;;;;;;;10.63;8.02;;;;;;;;;;6178203;23;20029;-68
2022/08/20 05:16:36;;;;;;;10.00;7.00;;;;;;;;;;6179684;23;20017;-67
2022/08/20 05:19:12;;;;;;;10.10;7.45;;;;;;;;;;6178994;23;20051;-66
2022/08/20 05:21:39;;;;;;;13.23;7.15;;;;;;;;;;6178483;23;20025;-65
2022/08/20 05:24:07;;;;;;;9.00;6.43;;;;;;;;;;6178435;23;20025;-65
2022/08/20 05:26:40;;;;;;;10.75;6.00;;;;;;;;;;6179406;23;20033;-61
2022/08/20 05:29:07;;;;;;;12.25;5.35;;;;;;;;;;6179156;23;20032;-68
2022/08/20 05:31:35;;;;;;;9.65;4.88;;;;;;;;;;6178230;23;20470;-68
2022/08/20 05:34:18;;;;;;;12.63;5.65;;;;;;;;;;6178414;23;20036;-68
2022/08/20 05:36:47;;;;;;;11.15;5.50;;;;;;;;;;6179615;23;20545;-68
2022/08/20 05:39:22;;;;;;;12.13;4.65;;;;;;;;;;6178965;23;20044;-68
2022/08/20 05:41:50;;;;;;;10.18;4.85;;;;;;;;;;6181083;23;20032;-68
2022/08/20 05:44:18;;;;;;;10.75;4.38;;;;;;;;;;6180478;23;20036;-64
2022/08/20 05:46:52;;;;;;;6.80;4.35;;;;;;;;;;6181249;23;20025;-55
2022/08/20 05:49:20;;;;;;;9.65;4.20;;;;;;;;;;6180582;23;20242;-60
2022/08/20 05:51:48;;;;;;;6.25;4.20;;;;;;;;;;6180746;23;20072;-60
2022/08/20 05:54:22;;;;;;;10.65;4.05;;;;;;;;;;6179893;23;20017;-60
2022/08/20 05:56:50;;;;;;;11.05;4.43;;;;;;;;;;6180221;23;20509;-60
2022/08/20 05:59:17;;;;;;;4.72;3.58;;;;;;;;;;6180236;23;20076;-60
2022/08/20 06:01:51;;;;;;;7.85;3.97;;;;;;;;;;6179912;23;20021;-60
2022/08/20 06:04:30;;;;;;;;;;;;;;;;;;6181113;23;20437;-54
2022/08/20 06:07:05;;;;;;;8.75;4.07;;;;;;;;;;6180815;23;20309;-53
2022/08/20 06:09:34;;;;;;;7.72;4.28;;;;;;;;;;6180189;23;20021;-53
2022/08/20 06:12:04;;;;;;;11.38;3.97;;;;;;;;;;6180857;23;20063;-55
2022/08/20 06:14:38;;;;;;;5.35;3.50;;;;;;;;;;6180554;23;20600;-53
2022/08/20 06:17:07;;;;;;;7.03;3.85;;;;;;;;;;6176923;23;20024;-50
2022/08/20 06:19:35;;;;;;;9.63;3.80;;;;;;;;;;6179168;23;20025;-54
2022/08/20 06:22:11;;;;;;;6.97;3.17;;;;;;;;;;6180040;23;20085;-61
2022/08/20 06:24:47;;;;;;;3.47;3.10;;;;;;;;;;6178459;23;20025;-62
2022/08/20 06:27:21;;;;;;;5.65;3.20;;;;;;;;;;6179770;23;20032;-68
2022/08/20 06:29:49;;;;;;;5.75;2.83;;;;;;;;;;6178265;23;20051;-68
2022/08/20 06:32:17;;;;;;;8.35;3.00;;;;;;;;;;6178463;23;20056;-68
2022/08/20 06:34:57;;;;;;;7.30;2.90;;;;;;;;;;6178914;23;20485;-69
2022/08/20 06:37:28;;;;;;;4.95;2.80;;;;;;;;;;6179768;23;20031;-68
2022/08/20 06:40:05;;;;;;;5.93;2.80;;;;;;;;;;6179538;23;20092;-68
2022/08/20 06:42:33;;;;;;;6.32;2.50;;;;;;;;;;6178677;23;20049;-69
2022/08/20 06:45:03;;;;;;;6.32;2.83;;;;;;;;;;6179969;23;20482;-56
2022/08/20 06:47:40;;;;;;;7.90;2.53;;;;;;;;;;6180909;23;20406;-58
2022/08/20 06:50:12;;;;;;;4.55;2.38;;;;;;;;;;6180391;23;20479;-56
2022/08/20 06:52:46;;;;;;;9.40;3.00;;;;;;;;;;6180291;23;20021;-57
2022/08/20 06:55:19;;;;;;;7.03;2.58;;;;;;;;;;6180338;23;20032;-57
2022/08/20 06:58:01;;;;;;;5.45;2.58;;;;;;;;;;6180913;23;20055;-54
2022/08/20 07:00:31;;;;;;;5.97;2.65;;;;;;;;;;6179801;23;20029;-57
2022/08/20 07:03:05;;;;;;;5.63;2.70;;;;;;;;;;6178525;23;20025;-64
2022/08/20 07:05:34;;;;;;;3.83;2.83;;;;;;;;;;6177930;23;20256;-61
2022/08/20 07:08:01;;;;;;;7.03;3.20;;;;;;;;;;6178482;23;20087;-61
2022/08/20 07:10:36;;;;;;;6.43;2.78;;;;;;;;;;6178612;23;20025;-61
2022/08/20 07:13:03;;;;;;;6.25;2.63;;;;;;;;;;6178678;23;20025;-61
2022/08/20 07:15:31;;;;;;;9.95;2.92;;;;;;;;;;6178727;23;20355;-61
2022/08/20 07:18:05;;;;;;;11.25;3.42;;;;;;;;;;6179251;23;20351;-61
2022/08/20 07:20:33;;;;;;;7.28;3.00;;;;;;;;;;6178611;23;20044;-55
2022/08/20 07:23:00;;;;;;;6.45;2.88;;;;;;;;;;6178459;23;20033;-56
2022/08/20 07:25:34;;;;;;;6.28;2.90;;;;;;;;;;6178398;23;20076;-59
2022/08/20 07:28:06;;;;;;;3.70;2.20;;;;;;;;;;6179252;23;20029;-56
2022/08/20 07:33:51;;;;;;;7.47;2.47;;;;;;;;;;6179096;23;20021;-59
2022/08/20 07:36:26;;;;;;;5.72;2.53;;;;;;;;;;6179945;23;20345;-56
2022/08/20 07:39:00;;;;;;;7.03;2.58;;;;;;;;;;6178527;23;20465;-63
2022/08/20 07:41:32;;;;;;;6.15;2.42;;;;;;;;;;6180463;23;20021;-61
2022/08/20 07:44:06;;;;;;;8.60;2.55;;;;;;;;;;6178583;23;20022;-49
2022/08/20 07:46:33;;;;;;;7.60;2.50;;;;;;;;;;6179936;23;20028;-49
2022/08/20 07:49:08;;;;;;;4.90;2.20;;;;;;;;;;6178507;23;20470;-48
2022/08/20 07:51:42;;;;;;;5.88;2.22;;;;;;;;;;6155273;23;20048;-52
2022/08/20 07:54:09;;;;;;;4.65;2.65;;;;;;;;;;6178432;23;20025;-54
2022/08/20 07:56:36;;;;;;;7.38;2.47;;;;;;;;;;6176845;23;20021;-50
2022/08/20 07:59:11;;;;;;;12.02;3.05;;;;;;;;;;6178900;23;20029;-68
2022/08/20 08:01:38;;;;;;;13.98;2.50;;;;;;;;;;6180403;23;20025;-62
2022/08/20 08:04:06;;;;;;;8.10;2.53;;;;;;;;;;6178545;23;20336;-63
2022/08/20 08:06:43;;;;;;;5.97;1.83;;;;;;;;;;6179483;23;20087;-63
2022/08/20 08:09:12;;;;;;;5.70;2.10;;;;;;;;;;6179085;23;20067;-63
2022/08/20 08:11:49;;;;;;;8.52;2.30;;;;;;;;;;6180418;23;20025;-63
2022/08/20 08:14:22;;;;;;;10.50;2.40;;;;;;;;;;6178470;23;20076;-63
2022/08/20 08:16:57;;;;;;;7.97;2.45;;;;;;;;;;6153491;23;20056;-57
2022/08/20 08:19:26;;;;;;;6.13;2.22;;;;;;;;;;6153302;23;20029;-62
2022/08/20 08:21:53;;;;;;;7.60;2.20;;;;;;;;;;6177264;23;20359;-48
2022/08/20 08:24:27;;;;;;;8.38;2.20;;;;;;;;;;6179711;23;20029;-53
2022/08/20 08:26:54;;;;;;;7.40;2.10;;;;;;;;;;6178916;23;20096;-52
2022/08/20 08:29:22;;;;;;;6.28;2.45;;;;;;;;;;6178126;23;20029;-49
2022/08/20 08:32:09;;;;;;;8.40;2.17;;;;;;;;;;6179197;23;20032;-47
2022/08/20 08:34:46;;;;;;;10.30;2.33;;;;;;;;;;6179318;23;20052;-50
2022/08/20 08:37:20;;;;;;;8.98;2.35;;;;;;;;;;6178573;23;20052;-54
2022/08/20 08:39:47;;;;;;;11.07;2.70;;;;;;;;;;6179548;23;20056;-57
2022/08/20 08:42:39;;;;;;;7.20;2.35;;;;;;;;;;6177831;23;20021;-57
2022/08/20 08:45:16;;;;;;;9.30;2.40;;;;;;;;;;6169168;23;20025;-55
2022/08/20 08:47:44;;;;;;;8.38;2.78;;;;;;;;;;6178593;23;20280;-53
2022/08/20 08:50:20;;;;;;;6.57;2.13;;;;;;;;;;6178031;23;20032;-55
2022/08/20 08:53:20;;;;;;;9.18;1.85;;;;;;;;;;6178215;23;20484;-56
2022/08/20 08:55:47;;;;;;;8.45;2.00;;;;;;;;;;6179017;23;20045;-58
2022/08/20 08:58:21;;;;;;;12.48;2.40;;;;;;;;;;6178624;23;20471;-69
2022/08/20 09:00:49;;;;;;;7.60;2.15;;;;;;;;;;6177091;23;20025;-69
2022/08/20 09:03:29;;;;;;;12.68;3.00;;;;;;;;;;6177355;23;20032;-68
2022/08/20 09:06:03;;;;;;;6.40;2.08;;;;;;;;;;6153867;23;20525;-69
2022/08/20 09:08:30;;;;;;;;;;;;;;;;;;6177415;23;20025;-69
2022/08/20 09:11:03;;;;;;;10.20;2.10;;;;;;;;;;6178792;23;19916;-69
2022/08/20 09:13:36;;;;;;;10.82;2.03;;;;;;;;;;6179634;23;20076;-69
2022/08/20 09:16:03;;;;;;;10.98;2.50;;;;;;;;;;6180597;23;20347;-68
2022/08/20 09:18:31;;;;;;;4.95;1.73;;;;;;;;;;6181315;23;20024;-60
2022/08/20 09:21:06;;;;;;;11.40;2.13;;;;;;;;;;6181644;23;20029;-60
2022/08/20 09:23:33;;;;;;;;;;;;;;;;;;6181396;23;20029;-62
2022/08/20 09:26:00;;;;;;;8.90;2.50;;;;;;;;;;6181298;23;19919;-60
2022/08/20 09:28:34;;;;;;;8.07;2.08;;;;;;;;;;6181275;23;20025;-60
2022/08/20 09:31:03;;;;;;;10.57;2.17;;;;;;;;;;6181719;23;20021;-60
2022/08/20 09:33:33;;;;;;;10.00;2.25;;;;;;;;;;6180721;23;20545;-51
2022/08/20 09:36:07;;;;;;;12.57;2.13;;;;;;;;;;6181111;23;20052;-48
2022/08/20 09:38:55;;;;;;;14.60;2.72;;;;;;;;;;6180817;23;20103;-51
2022/08/20 09:41:29;;;;;;;9.20;2.00;;;;;;;;;;6181079;23;20489;-46
2022/08/20 09:43:59;;;;;;;13.50;2.25;;;;;;;;;;6181216;23;20639;-48
2022/08/20 09:46:27;;;;;;;9.43;2.17;;;;;;;;;;6181324;23;20466;-48
2022/08/20 09:49:00;;;;;;;9.52;1.98;;;;;;;;;;6180998;23;20537;-51
2022/08/20 09:51:28;;;;;;;7.10;1.83;;;;;;;;;;6181325;23;20084;-49
2022/08/20 09:53:55;;;;;;;11.90;2.40;;;;;;;;;;6181537;23;20055;-69
2022/08/20 09:56:33;;;;;;;8.98;1.80;;;;;;;;;;6181396;23;20025;-50
2022/08/20 09:59:00;;;;;;;11.75;2.17;;;;;;;;;;6180458;23;20021;-48
2022/08/20 10:01:29;;;;;;;12.05;2.35;;;;;;;;;;6180650;23;20021;-47
2022/08/20 10:04:02;;;;;;;9.20;2.40;;;;;;;;;;6179041;23;20025;-47
2022/08/20 10:06:30;;;;;;;7.13;2.22;;;;;;;;;;6179107;23;20431;-49
2022/08/20 10:09:03;;;;;;;8.70;1.95;;;;;;;;;;6179722;23;20025;-47
2022/08/20 10:11:37;;;;;;;12.35;2.38;;;;;;;;;;6180908;23;20072;-61
2022/08/20 10:14:04;;;;;;;7.88;1.73;;;;;;;;;;6179022;23;20036;-52
2022/08/20 10:16:32;;;;;;;11.75;2.28;;;;;;;;;;6181019;23;20059;-60
2022/08/20 10:19:05;;;;;;;9.32;2.03;;;;;;;;;;6179984;23;20471;-59
2022/08/20 10:21:32;;;;;;;6.82;2.22;;;;;;;;;;6178975;23;20025;-60
2022/08/20 10:24:05;;;;;;;9.35;1.67;;;;;;;;;;6179559;23;20108;-59
2022/08/20 10:26:39;;;;;;;8.57;2.28;;;;;;;;;;6177904;23;20025;-60
2022/08/20 10:29:06;;;;;;;7.95;1.67;;;;;;;;;;6180170;23;20029;-59
2022/08/20 10:31:33;;;;;;;10.48;1.75;;;;;;;;;;6180160;23;20025;-60
2022/08/20 10:34:14;;;;;;;11.65;2.42;;;;;;;;;;6149436;23;20026;-53
2022/08/20 10:36:41;;;;;;;9.73;1.85;;;;;;;;;;6149359;23;20057;-54
2022/08/20 10:39:15;;;;;;;10.27;1.90;;;;;;;;;;6149031;23;20463;-53
2022/08/20 10:41:42;;;;;;;11.40;1.95;;;;;;;;;;6149090;23;20031;-53
2022/08/20 10:44:10;;;;;;;9.65;2.13;;;;;;;;;;6148599;23;20026;-55
2022/08/20 10:46:44;;;;;;;8.88;2.22;;;;;;;;;;6150062;23;20479;-54
2022/08/20 10:49:23;;;;;;;10.55;1.92;;;;;;;;;;6150680;23;20029;-66
2022/08/20 10:51:56;;;;;;;7.60;1.70;;;;;;;;;;6150058;23;20533;-49
2022/08/20 10:54:24;;;;;;;8.82;2.60;;;;;;;;;;6149393;23;20104;-45
2022/08/20 10:56:58;;;;;;;9.07;2.58;;;;;;;;;;6149451;23;20139;-52
2022/08/20 10:59:36;;;;;;;9.38;2.35;;;;;;;;;;6148307;23;20044;-51
2022/08/20 11:02:04;;;;;;;7.72;2.40;;;;;;;;;;6149298;23;20025;-50
2022/08/20 11:04:39;;;;;;;8.02;2.08;;;;;;;;;;6147686;23;20404;-53
2022/08/20 11:07:17;;;;;;;9.73;2.10;;;;;;;;;;6147354;23;20029;-45
2022/08/20 11:09:45;;;;;;;8.25;2.05;;;;;;;;;;6147635;23;20025;-56
2022/08/20 11:12:13;;;;;;;9.90;2.17;;;;;;;;;;6148821;23;20029;-61
2022/08/20 11:14:48;;;;;;;8.30;1.67;;;;;;;;;;6148728;23;20053;-61
2022/08/20 11:17:23;;;;;;;9.85;2.10;;;;;;;;;;6147941;23;20033;-61
2022/08/20 11:20:04;;;;;;;9.32;2.10;;;;;;;;;;6149085;23;20033;-61
2022/08/20 11:22:31;;;;;;;8.90;1.73;;;;;;;;;;6150552;23;20021;-61
2022/08/20 11:25:06;;;;;;;9.25;1.60;;;;;;;;;;6149020;23;20025;-60
2022/08/20 11:27:35;;;;;;;7.82;2.05;;;;;;;;;;6148342;23;20119;-68
2022/08/20 11:30:04;;;;;;;7.88;1.92;;;;;;;;;;6147176;23;20053;-59
2022/08/20 11:32:44;;;;;;;8.82;2.20;;;;;;;;;;6159205;23;20057;-50
2022/08/20 11:35:20;;;;;;;11.55;2.17;;;;;;;;;;6177177;23;20052;-48
2022/08/20 11:38:14;;;;;;;9.20;1.95;;;;;;;;;;6177878;23;20021;-55
2022/08/20 11:40:41;;;;;;;10.52;1.60;;;;;;;;;;6178157;23;20025;-51
2022/08/20 11:43:15;;;;;;;8.35;1.90;;;;;;;;;;6178129;23;20052;-52
2022/08/20 11:45:45;;;;;;;7.50;1.80;;;;;;;;;;6177801;23;20029;-48
2022/08/20 11:48:13;;;;;;;7.72;1.70;;;;;;;;;;6177498;23;20076;-49
2022/08/20 11:50:48;;;;;;;5.35;1.48;;;;;;;;;;6176725;23;20036;-59
2022/08/20 11:53:15;;;;;;;10.57;1.90;;;;;;;;;;6178909;23;20025;-60
2022/08/20 11:55:43;;;;;;;7.25;1.58;;;;;;;;;;6175632;23;20032;-60
2022/08/20 11:58:17;;;;;;;6.30;1.60;;;;;;;;;;6179693;23;20325;-60
2022/08/20 12:00:44;;;;;;;6.78;1.60;;;;;;;;;;6179054;23;20355;-60
2022/08/20 12:03:12;;;;;;;11.60;1.75;;;;;;;;;;6179301;23;20025;-61
2022/08/20 12:05:46;;;;;;;7.13;1.50;;;;;;;;;;6178810;23;20040;-58
2022/08/20 12:08:14;;;;;;;10.15;1.63;;;;;;;;;;6177380;23;20079;-53
2022/08/20 12:10:54;;;;;;;9.93;1.80;;;;;;;;;;6179247;23;20530;-59
2022/08/20 12:13:31;;;;;;;4.35;1.23;;;;;;;;;;6179660;23;20095;-59
2022/08/20 12:16:15;;;;;;;6.65;1.17;;;;;;;;;;6178940;23;20123;-59
2022/08/20 12:18:49;;;;;;;5.28;1.30;;;;;;;;;;6179444;23;20478;-59
2022/08/20 12:21:16;;;;;;;8.68;1.63;;;;;;;;;;6179028;23;20080;-59
2022/08/20 12:23:44;;;;;;;6.10;1.60;;;;;;;;;;6179360;23;20367;-66
2022/08/20 12:26:17;;;;;;;6.38;1.67;;;;;;;;;;6177950;23;20044;-48
2022/08/20 12:28:44;;;;;;;7.05;1.80;;;;;;;;;;6180417;23;20029;-57
2022/08/20 12:31:12;;;;;;;5.80;1.50;;;;;;;;;;6177133;23;20132;-57
2022/08/20 12:33:52;;;;;;;14.15;2.40;;;;;;;;;;6178379;23;20059;-55
2022/08/20 12:36:20;;;;;;;9.30;1.63;;;;;;;;;;6178818;23;20079;-55
2022/08/20 12:38:53;;;;;;;9.27;1.92;;;;;;;;;;6178494;23;20057;-57
2022/08/20 12:41:20;;;;;;;11.27;1.92;;;;;;;;;;6179499;23;20021;-56
2022/08/20 12:43:48;;;;;;;;;;;;;;;;;;6179773;23;20029;-50
2022/08/20 12:46:21;;;;;;;5.47;1.85;;;;;;;;;;6178884;23;19916;-65
2022/08/20 12:48:49;;;;;;;6.40;1.95;;;;;;;;;;6178666;23;20021;-60
2022/08/20 12:51:16;;;;;;;;;;;;;;;;;;6150606;23;20052;-59
2022/08/20 12:53:49;;;;;;;4.75;1.70;;;;;;;;;;6180612;23;19971;-60
2022/08/20 12:56:16;;;;;;;7.38;1.40;;;;;;;;;;6180082;23;20025;-59
2022/08/20 12:58:44;;;;;;;9.70;1.63;;;;;;;;;;6179127;23;20371;-59
2022/08/20 13:01:19;;;;;;;6.78;1.75;;;;;;;;;;6179684;23;20021;-61
2022/08/20 13:03:46;;;;;;;;;;;;;;;;;;6181339;23;20025;-49
2022/08/20 13:06:13;;;;;;;8.45;2.28;;;;;;;;;;6178238;23;19948;-52
2022/08/20 13:08:48;;;;;;;9.85;2.33;;;;;;;;;;6179550;23;20029;-51
2022/08/20 13:11:15;;;;;;;8.52;1.77;;;;;;;;;;6179151;23;20052;-53
2022/08/20 13:13:45;;;;;;;7.57;1.77;;;;;;;;;;6179957;23;20048;-52
2022/08/20 13:16:19;;;;;;;9.02;1.90;;;;;;;;;;6178563;23;20024;-48
2022/08/20 13:18:46;;;;;;;7.10;1.90;;;;;;;;;;6180149;23;20021;-56
2022/08/20 13:21:13;;;;;;;5.95;1.83;;;;;;;;;;6180285;23;20448;-51
2022/08/20 13:23:50;;;;;;;10.15;2.10;;;;;;;;;;6180382;23;20021;-61
2022/08/20 13:26:17;;;;;;;;;;;;;;;;;;6181102;23;20466;-58
2022/08/20 13:28:44;;;;;;;8.13;1.70;;;;;;;;;;6179876;23;19963;-58
2022/08/20 13:31:19;;;;;;;10.48;2.10;;;;;;;;;;6179703;23;20528;-61
2022/08/20 13:34:00;;;;;;;9.02;1.80;;;;;;;;;;6179617;23;20030;-61
2022/08/20 13:36:35;;;;;;;8.43;2.28;;;;;;;;;;6180629;23;20021;-62
2022/08/20 13:39:04;;;;;;;10.48;2.08;;;;;;;;;;6180955;23;20099;-61
2022/08/20 13:41:31;;;;;;;7.47;2.20;;;;;;;;;;6180318;23;20021;-48
2022/08/20 13:44:05;;;;;;;9.75;2.22;;;;;;;;;;6179108;23;20052;-51
2022/08/20 13:46:33;;;;;;;9.00;1.83;;;;;;;;;;6179907;23;20025;-51
2022/08/20 13:49:00;;;;;;;12.88;2.17;;;;;;;;;;6177516;23;20032;-53
2022/08/20 13:51:33;;;;;;;14.18;2.20;;;;;;;;;;6178008;23;20088;-48
2022/08/20 13:54:01;;;;;;;7.40;2.08;;;;;;;;;;6180455;23;20049;-49
2022/08/20 13:56:28;;;;;;;6.85;1.90;;;;;;;;;;6179968;23;20025;-49
2022/08/20 13:59:02;;;;;;;8.65;1.90;;;;;;;;;;6178868;23;20502;-61
2022/08/20 14:01:30;;;;;;;13.38;2.22;;;;;;;;;;6178559;23;20021;-62
2022/08/20 14:03:57;;;;;;;7.53;2.13;;;;;;;;;;6180260;23;20044;-46
2022/08/20 14:06:31;;;;;;;12.25;2.45;;;;;;;;;;6178655;23;20458;-46
2022/08/20 14:08:59;;;;;;;10.98;2.67;;;;;;;;;;6180742;23;20036;-47
2022/08/20 14:11:26;;;;;;;10.55;2.53;;;;;;;;;;6181713;23;20040;-46
2022/08/20 14:13:59;;;;;;;7.55;2.53;;;;;;;;;;6178570;23;20403;-48
2022/08/20 14:16:28;;;;;;;11.07;2.28;;;;;;;;;;6181939;23;20029;-50
2022/08/20 14:19:01;;;;;;;13.82;2.22;;;;;;;;;;6180863;23;20025;-52
2022/08/20 14:21:36;;;;;;;7.57;1.80;;;;;;;;;;6180537;23;20380;-50
2022/08/20 14:24:03;;;;;;;12.02;2.00;;;;;;;;;;6180694;23;20029;-65
2022/08/20 14:26:30;;;;;;;6.43;1.50;;;;;;;;;;6180130;23;20076;-65
2022/08/20 14:29:04;;;;;;;9.60;2.05;;;;;;;;;;6179903;23;20017;-64
2022/08/20 14:31:31;;;;;;;8.93;2.08;;;;;;;;;;6179014;23;20060;-64
2022/08/20 14:33:59;;;;;;;6.60;1.85;;;;;;;;;;6178361;23;20079;-62
2022/08/20 14:36:33;;;;;;;11.23;2.35;;;;;;;;;;6181885;23;20060;-64
2022/08/20 14:39:00;;;;;;;6.05;2.03;;;;;;;;;;6177010;23;20029;-50
2022/08/20 14:41:28;;;;;;;5.43;2.03;;;;;;;;;;6179319;23;20080;-58
2022/08/20 14:44:01;;;;;;;10.85;2.25;;;;;;;;;;6179535;23;20017;-59
2022/08/20 14:46:31;;;;;;;10.23;1.90;;;;;;;;;;6180962;23;20035;-59
2022/08/20 14:48:58;;;;;;;10.65;2.30;;;;;;;;;;6153690;23;20025;-59
2022/08/20 14:51:32;;;;;;;13.23;2.45;;;;;;;;;;6181219;23;20036;-59
2022/08/20 14:53:59;;;;;;;10.43;2.33;;;;;;;;;;6180166;23;20088;-59
2022/08/20 14:56:27;;;;;;;8.75;2.35;;;;;;;;;;6177589;23;20556;-59
2022/08/20 14:59:00;;;;;;;7.10;2.10;;;;;;;;;;6179794;23;20079;-59
2022/08/20 15:01:28;;;;;;;9.00;2.42;;;;;;;;;;6180614;23;20048;-55
2022/08/20 15:03:55;;;;;;;7.95;2.45;;;;;;;;;;6180859;23;20043;-55
2022/08/20 15:06:30;;;;;;;15.20;2.60;;;;;;;;;;6180083;23;20706;-56
2022/08/20 15:08:57;;;;;;;16.27;2.65;;;;;;;;;;6179101;23;20532;-55